Time;durP1;ratioP1;P1;durP2;ratioP2;P2;SDS_P1;SDS_P2;PMS_P1;PMS_P2;Temp;Humidity;BMP_temperature;BMP_pressure;BME280_temperature;BME280_humidity;BME280_pressure;Samples;Min_cycle;Max_cycle;Signal;HPM_P1;HPM_P2
2021/04/25 00:02:09;;;;;;;7.85;2.85;;;;;;;5.26;100.00;102691.19;5167668;28;20539;-80
2021/04/25 00:04:39;;;;;;;5.70;2.40;;;;;;;5.20;100.00;102697.72;5166854;28;20087;-80
2021/04/25 00:07:10;;;;;;;9.82;2.40;;;;;;;5.08;100.00;102698.44;5173768;28;20026;-80
2021/04/25 00:09:41;;;;;;;9.98;2.90;;;;;;;5.10;100.00;102701.00;5182582;28;20526;-82
2021/04/25 00:12:12;;;;;;;11.13;4.05;;;;;;;5.06;100.00;102696.78;5166448;28;20022;-80
2021/04/25 00:14:42;;;;;;;8.80;2.80;;;;;;;5.05;100.00;102693.28;5168996;28;20491;-80
2021/04/25 00:17:13;;;;;;;7.22;3.80;;;;;;;5.02;100.00;102690.81;5176463;28;20030;-80
2021/04/25 00:19:43;;;;;;;10.93;2.72;;;;;;;4.96;100.00;102698.25;5165840;28;20014;-80
2021/04/25 00:22:14;;;;;;;12.43;2.88;;;;;;;4.91;100.00;102695.81;5177587;28;20049;-80
2021/04/25 00:24:44;;;;;;;7.65;2.90;;;;;;;4.86;100.00;102693.41;5201204;28;20018;-81
2021/04/25 00:27:14;;;;;;;14.85;3.75;;;;;;;4.82;100.00;102694.56;5179290;28;20045;-80
2021/04/25 00:29:45;;;;;;;10.75;3.25;;;;;;;4.81;100.00;102690.16;5165494;28;20037;-80
2021/04/25 00:32:15;;;;;;;9.35;3.38;;;;;;;4.80;100.00;102688.44;5164894;28;20026;-80
2021/04/25 00:34:46;;;;;;;13.30;3.45;;;;;;;4.85;100.00;102697.03;5173781;28;20026;-80
2021/04/25 00:37:16;;;;;;;11.40;3.92;;;;;;;4.81;100.00;102690.16;5169666;28;20436;-80
2021/04/25 00:39:47;;;;;;;7.72;2.88;;;;;;;4.78;100.00;102694.81;5174000;28;20030;-81
2021/04/25 00:42:17;;;;;;;12.15;3.90;;;;;;;4.75;100.00;102695.81;5184670;28;20048;-80
2021/04/25 00:44:48;;;;;;;11.73;4.05;;;;;;;4.72;100.00;102689.78;5199892;28;20026;-80
2021/04/25 00:47:18;;;;;;;9.70;3.78;;;;;;;4.70;100.00;102689.88;5167015;28;20037;-80
2021/04/25 00:49:49;;;;;;;13.25;3.95;;;;;;;4.63;100.00;102686.72;5175451;28;20026;-80
2021/04/25 00:52:20;;;;;;;10.50;3.60;;;;;;;4.61;100.00;102682.41;5182358;28;20041;-82
2021/04/25 00:54:51;;;;;;;18.08;4.97;;;;;;;4.55;100.00;102682.75;5171569;28;20479;-79
2021/04/25 00:57:21;;;;;;;12.95;4.72;;;;;;;4.48;100.00;102679.56;5161648;28;20037;-80
2021/04/25 00:59:53;;;;;;;12.73;4.80;;;;;;;4.39;100.00;102682.72;5170673;28;20087;-80
2021/04/25 01:02:24;;;;;;;20.00;4.70;;;;;;;4.35;100.00;102684.66;5171337;28;20104;-80
2021/04/25 01:04:55;;;;;;;11.95;4.32;;;;;;;4.31;100.00;102690.22;5168753;28;20053;-80
2021/04/25 01:07:26;;;;;;;18.40;5.57;;;;;;;4.29;100.00;102686.78;5166548;28;20034;-80
2021/04/25 01:09:56;;;;;;;12.10;4.35;;;;;;;4.19;100.00;102694.38;5183414;28;20484;-80
2021/04/25 01:12:27;;;;;;;20.63;4.95;;;;;;;4.16;100.00;102689.22;5177828;28;20037;-80
2021/04/25 01:14:58;;;;;;;13.98;4.95;;;;;;;4.09;100.00;102687.84;5173600;28;20029;-80
2021/04/25 01:17:29;;;;;;;13.63;4.32;;;;;;;4.00;100.00;102678.53;5190144;28;20479;-79
2021/04/25 01:20:00;;;;;;;16.20;4.50;;;;;;;4.05;100.00;102680.94;5166300;28;20034;-79
2021/04/25 01:22:30;;;;;;;15.05;4.95;;;;;;;4.00;100.00;102690.97;5179358;28;20113;-80
2021/04/25 01:25:02;;;;;;;10.93;4.40;;;;;;;3.90;100.00;102688.75;5173705;28;20121;-80
2021/04/25 01:27:32;;;;;;;13.73;4.25;;;;;;;3.81;100.00;102685.72;5170498;28;20073;-82
2021/04/25 01:30:05;;;;;;;18.23;4.43;;;;;;;3.77;100.00;102687.69;5173861;28;20446;-80
2021/04/25 01:32:41;;;;;;;11.77;4.53;;;;;;;3.83;100.00;102687.38;5185429;28;20484;-82
2021/04/25 01:35:21;;;;;;;17.13;5.15;;;;;;;3.79;100.00;102696.41;5175041;28;20026;-79
2021/04/25 01:37:55;;;;;;;14.88;4.75;;;;;;;3.80;100.00;102690.16;5164710;28;20022;-80
2021/04/25 01:40:27;;;;;;;18.08;5.28;;;;;;;3.83;100.00;102697.13;5163923;28;20050;-80
2021/04/25 01:43:00;;;;;;;16.95;4.35;;;;;;;3.85;100.00;102689.94;5165507;28;20028;-80
2021/04/25 01:45:31;;;;;;;10.98;4.07;;;;;;;3.85;100.00;102690.78;5179966;28;20026;-80
2021/04/25 01:48:04;;;;;;;14.05;5.00;;;;;;;3.82;100.00;102696.28;5174736;28;20068;-80
2021/04/25 01:50:36;;;;;;;16.63;5.47;;;;;;;3.83;100.00;102691.81;5181067;28;20629;-80
2021/04/25 01:53:07;;;;;;;16.30;4.80;;;;;;;3.80;100.00;102692.81;5184153;28;20053;-79
2021/04/25 01:55:39;;;;;;;14.13;4.88;;;;;;;3.79;100.00;102693.78;5182067;28;20104;-81
2021/04/25 01:58:11;;;;;;;13.82;4.97;;;;;;;3.72;100.00;102695.03;5167226;28;20057;-80
2021/04/25 02:00:44;;;;;;;15.07;5.38;;;;;;;3.74;100.00;102690.47;5163296;28;20495;-79
2021/04/25 02:03:16;;;;;;;15.20;5.18;;;;;;;3.74;100.00;102690.47;5166034;28;20031;-79
2021/04/25 02:05:47;;;;;;;17.75;5.78;;;;;;;3.71;100.00;102697.72;5174298;28;20034;-80
2021/04/25 02:08:18;;;;;;;16.42;4.88;;;;;;;3.69;100.00;102696.97;5163229;28;20025;-80
2021/04/25 02:10:52;;;;;;;13.88;5.53;;;;;;;3.65;100.00;102698.91;5173394;28;20180;-80
2021/04/25 02:13:22;;;;;;;19.77;6.18;;;;;;;3.68;100.00;102700.56;5170015;28;20714;-80
2021/04/25 02:15:53;;;;;;;22.52;7.25;;;;;;;3.67;100.00;102706.81;5198308;28;20033;-80
2021/04/25 02:18:23;;;;;;;13.50;5.72;;;;;;;3.60;100.00;102709.75;5183622;28;20503;-80
2021/04/25 02:20:54;;;;;;;17.60;7.20;;;;;;;3.59;100.00;102713.34;5170695;28;20128;-80
2021/04/25 02:23:25;;;;;;;17.63;6.00;;;;;;;3.62;100.00;102702.59;5190564;28;20042;-80
2021/04/25 02:25:55;;;;;;;25.70;6.38;;;;;;;3.56;100.00;102708.16;5177079;28;20088;-81
2021/04/25 02:28:25;;;;;;;16.83;5.38;;;;;;;3.52;100.00;102711.09;5184960;28;20496;-80
2021/04/25 02:30:56;;;;;;;18.85;6.28;;;;;;;3.44;100.00;102708.78;5189204;28;20474;-80
2021/04/25 02:33:26;;;;;;;30.83;7.03;;;;;;;3.41;100.00;102706.28;5169778;28;20034;-80
2021/04/25 02:35:57;;;;;;;18.80;6.38;;;;;;;3.41;100.00;102708.91;5169091;28;20030;-80
2021/04/25 02:38:27;;;;;;;20.77;6.25;;;;;;;3.40;100.00;102715.16;5169036;28;20030;-80
2021/04/25 02:40:58;;;;;;;26.95;6.65;;;;;;;3.43;100.00;102711.53;5169341;28;20483;-80
2021/04/25 02:43:29;;;;;;;17.90;5.97;;;;;;;3.44;100.00;102716.75;5169029;28;20030;-80
2021/04/25 02:46:00;;;;;;;19.95;6.53;;;;;;;3.34;100.00;102704.84;5183285;28;20365;-81
2021/04/25 02:48:30;;;;;;;17.25;6.28;;;;;;;3.29;100.00;102710.38;5183027;28;20026;-80
2021/04/25 02:51:01;;;;;;;15.10;6.38;;;;;;;3.23;100.00;102716.00;5189080;28;20042;-80
2021/04/25 02:53:31;;;;;;;21.10;6.00;;;;;;;3.17;100.00;102712.78;5185692;28;20029;-80
2021/04/25 02:56:03;;;;;;;17.17;6.43;;;;;;;3.07;100.00;102715.00;5168768;28;20031;-80
2021/04/25 02:58:33;;;;;;;20.80;6.57;;;;;;;2.97;100.00;102713.72;5169170;28;20034;-80
2021/04/25 03:01:03;;;;;;;20.75;6.47;;;;;;;2.92;100.00;102721.88;5169888;28;20030;-80
2021/04/25 03:03:34;;;;;;;16.55;6.57;;;;;;;2.78;100.00;102725.16;5180353;28;20053;-80
2021/04/25 03:06:04;;;;;;;22.67;6.55;;;;;;;2.64;100.00;102716.97;5179909;28;20037;-80
2021/04/25 03:08:35;;;;;;;20.73;7.68;;;;;;;2.56;100.00;102721.75;5168900;28;20328;-80
2021/04/25 03:11:06;;;;;;;21.55;7.00;;;;;;;2.53;100.00;102719.25;5180835;28;20553;-80
2021/04/25 03:13:36;;;;;;;17.40;6.50;;;;;;;2.50;100.00;102727.31;5180767;28;20034;-81
2021/04/25 03:16:07;;;;;;;18.77;6.88;;;;;;;2.40;100.00;102723.34;5169491;28;20026;-80
2021/04/25 03:18:38;;;;;;;22.70;7.70;;;;;;;2.37;100.00;102721.72;5188229;28;20017;-80
2021/04/25 03:21:08;;;;;;;20.58;6.60;;;;;;;2.33;100.00;102720.13;5175852;28;20038;-81
2021/04/25 03:23:39;;;;;;;17.25;6.55;;;;;;;2.28;100.00;102716.81;5188847;28;20498;-80
2021/04/25 03:26:09;;;;;;;18.23;6.45;;;;;;;2.21;100.00;102720.66;5170917;28;20022;-80
2021/04/25 03:28:40;;;;;;;28.77;10.75;;;;;;;2.16;100.00;102722.63;5167530;28;20033;-80
2021/04/25 03:31:10;;;;;;;18.73;7.13;;;;;;;2.11;100.00;102722.88;5185268;28;20026;-81
2021/04/25 03:33:41;;;;;;;20.63;7.50;;;;;;;2.04;100.00;102721.38;5175157;28;20030;-80
2021/04/25 03:36:11;;;;;;;24.88;7.35;;;;;;;2.00;100.00;102722.44;5186841;28;20029;-80
2021/04/25 03:38:42;;;;;;;20.85;6.38;;;;;;;1.98;100.00;102713.72;5187047;28;20103;-80
2021/04/25 03:41:12;;;;;;;20.42;6.25;;;;;;;2.00;100.00;102715.34;5160536;28;20049;-80
2021/04/25 03:43:43;;;;;;;23.85;7.00;;;;;;;1.98;100.00;102724.31;5172833;28;20034;-80
2021/04/25 03:46:14;;;;;;;22.25;7.07;;;;;;;1.96;100.00;102721.72;5174842;28;20368;-80
2021/04/25 03:48:45;;;;;;;21.50;6.75;;;;;;;1.93;100.00;102723.63;5185052;28;20487;-80
2021/04/25 03:51:16;;;;;;;31.58;10.45;;;;;;;1.90;100.00;102729.91;5166813;28;20048;-80
2021/04/25 03:53:47;;;;;;;23.63;7.60;;;;;;;1.87;100.00;102729.19;5170644;28;20041;-80
2021/04/25 03:56:17;;;;;;;29.73;7.03;;;;;;;1.88;100.00;102725.63;5184225;28;20030;-80
2021/04/25 03:58:48;;;;;;;22.92;7.78;;;;;;;1.85;100.00;102718.66;5166380;28;20099;-80
2021/04/25 04:01:19;;;;;;;22.38;7.40;;;;;;;1.86;100.00;102712.47;5166801;28;20149;-80
2021/04/25 04:03:50;;;;;;;20.10;7.88;;;;;;;1.88;100.00;102707.09;5165788;28;20504;-82
2021/04/25 04:06:21;;;;;;;22.15;7.95;;;;;;;1.79;100.00;102708.31;5166146;28;20515;-82
2021/04/25 04:08:51;;;;;;;22.60;8.27;;;;;;;1.73;100.00;102716.53;5174766;28;20033;-80
2021/04/25 04:11:22;;;;;;;20.15;8.32;;;;;;;1.71;100.00;102711.31;5184127;28;20036;-81
2021/04/25 04:13:52;;;;;;;26.23;8.52;;;;;;;1.68;100.00;102713.22;5166340;28;20026;-81
2021/04/25 04:16:25;;;;;;;27.05;8.32;;;;;;;1.68;100.00;102716.72;5169935;28;20080;-80
2021/04/25 04:18:56;;;;;;;20.23;7.32;;;;;;;1.66;100.00;102721.22;5187535;28;20116;-80
2021/04/25 04:21:26;;;;;;;22.52;7.07;;;;;;;1.58;100.00;102718.00;5173549;28;20079;-80
2021/04/25 04:23:57;;;;;;;21.45;8.57;;;;;;;1.55;100.00;102723.41;5186681;28;20395;-80
2021/04/25 04:26:27;;;;;;;21.15;7.25;;;;;;;1.57;100.00;102728.66;5180904;28;20030;-80
2021/04/25 04:28:59;;;;;;;31.98;10.00;;;;;;;1.54;100.00;102733.13;5147381;28;20033;-80
2021/04/25 04:31:29;;;;;;;29.27;10.90;;;;;;;1.54;100.00;102732.28;5164443;28;20093;-80
2021/04/25 04:34:00;;;;;;;21.58;8.10;;;;;;;1.59;100.00;102729.47;5178313;28;20073;-80
2021/04/25 04:36:30;;;;;;;24.85;8.02;;;;;;;1.58;100.00;102731.25;5166168;28;20034;-82
2021/04/25 04:39:00;;;;;;;33.55;12.50;;;;;;;1.57;100.00;102729.53;5165360;28;20093;-82
2021/04/25 04:41:31;;;;;;;25.80;9.45;;;;;;;1.57;100.00;102726.03;5174156;28;20018;-80
2021/04/25 04:44:02;;;;;;;24.25;7.82;;;;;;;1.57;100.00;102732.16;5181704;28;20033;-80
2021/04/25 04:46:33;;;;;;;27.05;11.85;;;;;;;1.66;100.00;102734.44;5176860;28;20543;-80
2021/04/25 04:49:04;;;;;;;21.95;8.63;;;;;;;1.69;100.00;102730.81;5172157;28;20487;-81
2021/04/25 04:51:34;;;;;;;29.75;9.00;;;;;;;1.82;100.00;102732.03;5172750;28;20033;-80
2021/04/25 04:54:05;;;;;;;36.22;12.88;;;;;;;1.94;100.00;102734.16;5169641;28;20026;-80
2021/04/25 04:56:35;;;;;;;29.83;10.20;;;;;;;1.96;100.00;102728.81;5178833;28;20106;-80
2021/04/25 04:59:06;;;;;;;31.88;11.15;;;;;;;1.95;100.00;102727.91;5160015;28;20510;-81
2021/04/25 05:01:37;;;;;;;24.35;10.98;;;;;;;1.97;100.00;102728.75;5172868;28;20018;-80
2021/04/25 05:04:07;;;;;;;259.92;48.88;;;;;;;2.01;100.00;102729.47;5164819;28;20045;-80
2021/04/25 05:06:38;;;;;;;33.83;10.02;;;;;;;2.15;100.00;102735.03;5164014;28;20050;-80
2021/04/25 05:09:08;;;;;;;22.20;9.35;;;;;;;2.12;100.00;102736.97;5165362;28;20038;-80
2021/04/25 05:11:39;;;;;;;33.83;15.05;;;;;;;2.17;100.00;102743.78;5169690;28;20060;-80
2021/04/25 05:14:09;;;;;;;28.25;12.13;;;;;;;2.22;100.00;102744.44;5174249;28;20480;-82
2021/04/25 05:16:40;;;;;;;22.45;8.65;;;;;;;2.37;100.00;102750.88;5177582;28;20039;-80
2021/04/25 05:19:10;;;;;;;26.27;9.00;;;;;;;2.43;100.00;102750.59;5176453;28;20053;-79
2021/04/25 05:21:41;;;;;;;21.85;8.20;;;;;;;2.69;100.00;102744.13;5177125;28;20480;-79
2021/04/25 05:24:11;;;;;;;26.88;7.57;;;;;;;3.56;100.00;102749.78;5163534;28;20039;-80
2021/04/25 05:26:42;;;;;;;26.13;7.75;;;;;;;4.93;100.00;102748.00;5170755;28;20104;-80
2021/04/25 05:29:12;;;;;;;19.92;6.70;;;;;;;6.51;100.00;102756.72;5176220;28;20034;-80
2021/04/25 05:31:44;;;;;;;15.43;6.43;;;;;;;7.73;100.00;102756.94;5164878;28;20202;-79
2021/04/25 05:34:15;;;;;;;19.85;6.30;;;;;;;9.03;100.00;102756.91;5163385;28;20072;-80
2021/04/25 05:36:46;;;;;;;22.30;8.50;;;;;;;9.56;82.46;102762.88;5164638;28;20088;-80
2021/04/25 05:39:16;;;;;;;14.50;5.95;;;;;;;9.95;75.66;102757.34;5180420;28;20472;-80
2021/04/25 05:41:47;;;;;;;12.35;4.75;;;;;;;9.98;67.64;102760.63;5176199;28;20035;-81
2021/04/25 05:44:17;;;;;;;13.70;4.75;;;;;;;9.79;67.99;102763.03;5167903;28;20050;-80
2021/04/25 05:46:48;;;;;;;10.85;4.25;;;;;;;9.81;67.97;102758.38;5184764;28;20026;-80
2021/04/25 05:49:18;;;;;;;15.57;6.03;;;;;;;9.75;65.66;102762.38;5182054;28;20026;-82
2021/04/25 05:51:49;;;;;;;14.90;4.90;;;;;;;9.59;64.85;102768.03;5192969;28;20090;-83
2021/04/25 05:54:19;;;;;;;9.88;3.97;;;;;;;9.33;65.84;102756.53;5198130;28;20042;-82
2021/04/25 05:56:50;;;;;;;10.35;4.38;;;;;;;9.44;65.52;102750.41;5187745;28;20050;-81
2021/04/25 05:59:20;;;;;;;13.27;4.53;;;;;;;9.45;68.71;102764.66;5176017;28;20037;-80
2021/04/25 06:01:51;;;;;;;7.68;3.58;;;;;;;8.98;66.81;102752.84;5185666;28;20049;-80
2021/04/25 06:04:21;;;;;;;9.10;4.20;;;;;;;9.13;70.04;102766.97;5197766;28;20025;-80
2021/04/25 06:06:51;;;;;;;9.02;4.03;;;;;;;8.79;73.07;102762.22;5196122;28;20033;-81
2021/04/25 06:09:22;;;;;;;10.98;4.03;;;;;;;8.73;71.60;102749.22;5188074;28;20031;-82
2021/04/25 06:11:53;;;;;;;15.02;4.07;;;;;;;8.11;76.58;102758.91;5180978;28;20037;-80
2021/04/25 06:14:24;;;;;;;13.70;3.95;;;;;;;7.49;94.50;102762.09;5185168;28;20034;-82
2021/04/25 06:16:54;;;;;;;10.20;3.45;;;;;;;6.63;99.58;102754.19;5216742;28;20025;-82
2021/04/25 06:19:25;;;;;;;9.80;4.18;;;;;;;6.09;100.00;102767.22;5199089;28;20089;-82
2021/04/25 06:21:55;;;;;;;11.80;3.22;;;;;;;5.92;100.00;102770.88;5180256;28;20112;-80
2021/04/25 06:24:26;;;;;;;11.52;3.95;;;;;;;5.89;100.00;102773.66;5174892;28;20114;-79
2021/04/25 06:26:57;;;;;;;12.60;4.00;;;;;;;5.90;100.00;102759.41;5174771;28;20030;-80
2021/04/25 06:29:29;;;;;;;12.88;3.15;;;;;;;5.59;100.00;102764.78;5167037;28;20086;-80
2021/04/25 06:32:00;;;;;;;16.17;4.28;;;;;;;5.50;100.00;102759.97;5179726;28;20037;-80
2021/04/25 06:34:31;;;;;;;13.68;3.55;;;;;;;5.58;100.00;102766.59;5181606;28;20033;-79
2021/04/25 06:37:01;;;;;;;11.48;4.05;;;;;;;5.66;100.00;102766.13;5182095;28;20491;-80
2021/04/25 06:39:32;;;;;;;12.48;4.05;;;;;;;5.69;100.00;102763.31;5187987;28;20505;-80
2021/04/25 06:42:02;;;;;;;13.15;4.60;;;;;;;5.80;100.00;102763.53;5187846;28;20058;-81
2021/04/25 06:44:33;;;;;;;8.77;3.60;;;;;;;5.78;100.00;102764.59;5179989;28;20041;-80
2021/04/25 06:47:03;;;;;;;10.98;3.80;;;;;;;5.79;100.00;102763.66;5180709;28;20482;-79
2021/04/25 06:49:34;;;;;;;12.38;4.22;;;;;;;5.76;100.00;102762.00;5180146;28;20041;-80
2021/04/25 06:52:04;;;;;;;10.48;3.88;;;;;;;5.77;100.00;102766.38;5183007;28;20385;-82
2021/04/25 06:54:36;;;;;;;13.73;4.00;;;;;;;5.84;100.00;102767.75;5181923;28;20030;-80
2021/04/25 06:57:07;;;;;;;7.88;3.47;;;;;;;5.91;100.00;102765.59;5169811;28;20034;-79
2021/04/25 06:59:37;;;;;;;8.85;3.35;;;;;;;6.02;100.00;102770.31;5171254;28;20543;-80
2021/04/25 07:02:08;;;;;;;12.90;3.80;;;;;;;6.18;100.00;102776.47;5173016;28;20021;-78
2021/04/25 07:04:39;;;;;;;11.23;3.15;;;;;;;6.15;99.69;102769.50;5185612;28;20099;-79
2021/04/25 07:07:10;;;;;;;9.23;3.13;;;;;;;6.17;97.41;102772.94;5172124;28;20037;-78
2021/04/25 07:09:41;;;;;;;11.10;3.45;;;;;;;6.17;95.73;102777.41;5184365;28;20105;-79
2021/04/25 07:12:11;;;;;;;9.82;3.20;;;;;;;6.37;100.00;102778.88;5168619;28;20451;-80
2021/04/25 07:14:42;;;;;;;15.57;4.00;;;;;;;6.68;95.95;102780.59;5178787;28;20038;-80
2021/04/25 07:17:12;;;;;;;12.38;3.33;;;;;;;6.96;90.97;102769.91;5175140;28;20038;-77
2021/04/25 07:19:43;;;;;;;11.05;3.80;;;;;;;7.03;86.15;102775.72;5168661;28;20495;-76
2021/04/25 07:22:13;;;;;;;7.70;3.42;;;;;;;7.12;87.81;102783.13;5177280;28;20471;-79
2021/04/25 07:24:44;;;;;;;12.50;3.33;;;;;;;7.32;91.77;102770.34;5167723;28;20062;-78
2021/04/25 07:27:14;;;;;;;15.57;3.35;;;;;;;7.32;88.84;102789.88;5173933;28;20467;-77
2021/04/25 07:29:46;;;;;;;8.00;3.75;;;;;;;7.32;78.96;102789.88;5178995;28;20077;-79
2021/04/25 07:32:17;;;;;;;10.20;3.80;;;;;;;7.13;83.67;102790.22;5178535;28;20030;-78
2021/04/25 07:34:48;;;;;;;8.07;3.30;;;;;;;6.98;82.42;102789.34;5165658;28;20030;-78
2021/04/25 07:37:18;;;;;;;11.13;3.53;;;;;;;6.91;88.16;102789.81;5178780;28;20065;-79
2021/04/25 07:39:49;;;;;;;14.57;3.03;;;;;;;6.95;85.15;102770.00;5164471;28;20057;-78
2021/04/25 07:42:19;;;;;;;11.35;3.45;;;;;;;6.95;91.17;102770.84;5182210;28;20088;-78
2021/04/25 07:44:49;;;;;;;14.10;3.75;;;;;;;7.13;94.71;102781.31;5174231;28;20031;-79
2021/04/25 07:47:20;;;;;;;7.57;2.83;;;;;;;7.13;86.72;102787.53;5178827;28;20030;-79
2021/04/25 07:49:50;;;;;;;12.70;4.10;;;;;;;7.22;89.06;102780.75;5165294;28;20444;-79
2021/04/25 07:52:21;;;;;;;14.75;5.72;;;;;;;7.31;83.92;102781.97;5182466;28;20087;-79
2021/04/25 07:54:51;;;;;;;11.35;3.90;;;;;;;7.35;82.85;102787.03;5174172;28;20472;-78
2021/04/25 07:57:22;;;;;;;13.63;3.83;;;;;;;7.20;80.02;102774.66;5166172;28;20025;-80
2021/04/25 07:59:52;;;;;;;8.38;3.15;;;;;;;7.09;79.65;102782.50;5180465;28;20175;-79
2021/04/25 08:02:23;;;;;;;15.73;4.40;;;;;;;7.14;88.51;102781.25;5185486;28;20018;-78
2021/04/25 08:04:53;;;;;;;9.98;3.45;;;;;;;7.17;89.11;102783.69;5172027;28;20477;-79
2021/04/25 08:07:24;;;;;;;10.52;3.92;;;;;;;7.11;86.01;102780.56;5175554;28;20045;-78
2021/04/25 08:09:54;;;;;;;9.88;3.55;;;;;;;7.11;94.49;102780.56;5167523;28;20033;-79
2021/04/25 08:12:25;;;;;;;14.23;4.85;;;;;;;7.23;90.62;102778.00;5185290;28;20364;-79
2021/04/25 08:14:56;;;;;;;11.30;3.40;;;;;;;7.29;88.48;102770.56;5176414;28;20113;-79
2021/04/25 08:17:26;;;;;;;17.38;3.25;;;;;;;7.08;83.39;102772.75;5173069;28;20030;-79
2021/04/25 08:19:57;;;;;;;11.93;3.70;;;;;;;7.20;93.53;102777.31;5164688;28;20018;-79
2021/04/25 08:22:27;;;;;;;9.15;3.70;;;;;;;7.44;96.62;102778.44;5177529;28;20095;-79
2021/04/25 08:24:58;;;;;;;12.55;3.95;;;;;;;7.68;85.85;102776.00;5172065;28;20391;-79
2021/04/25 08:27:28;;;;;;;7.68;3.50;;;;;;;7.57;79.23;102775.81;5192872;28;20390;-80
2021/04/25 08:29:59;;;;;;;9.07;3.28;;;;;;;7.27;81.68;102767.97;5166208;28;20069;-80
2021/04/25 08:32:29;;;;;;;6.40;3.47;;;;;;;7.13;87.86;102770.63;5179445;28;20085;-79
2021/04/25 08:35:00;;;;;;;12.32;3.80;;;;;;;6.86;82.70;102759.91;5178926;28;20030;-79
2021/04/25 08:37:31;;;;;;;16.63;4.00;;;;;;;6.83;91.85;102768.97;5193381;28;20089;-80
2021/04/25 08:40:01;;;;;;;10.13;3.97;;;;;;;6.80;89.36;102771.81;5195747;28;20044;-80
2021/04/25 08:42:32;;;;;;;14.38;4.13;;;;;;;6.81;92.08;102764.66;5193710;28;20022;-80
2021/04/25 08:45:03;;;;;;;11.48;4.00;;;;;;;6.92;93.28;102759.50;5178234;28;20114;-79
2021/04/25 08:47:51;;;;;;;13.68;4.15;;;;;;;6.89;92.15;102760.56;5181903;28;20027;-78
2021/04/25 08:50:22;;;;;;;11.75;4.97;;;;;;;6.97;100.00;102782.28;5185325;28;20026;-80
2021/04/25 08:52:53;;;;;;;8.20;4.15;;;;;;;7.35;98.11;102771.00;5181664;28;20488;-80
2021/04/25 08:55:25;;;;;;;8.63;3.53;;;;;;;7.73;87.89;102778.31;5181143;28;20025;-79
2021/04/25 08:57:56;;;;;;;10.52;3.47;;;;;;;7.97;85.66;102768.69;5153640;28;20485;-80
2021/04/25 09:00:26;;;;;;;9.35;3.33;;;;;;;8.17;80.89;102778.03;5163701;28;20027;-79
2021/04/25 09:02:57;;;;;;;6.53;3.60;;;;;;;8.31;77.37;102774.44;5165433;28;20022;-79
2021/04/25 09:05:27;;;;;;;12.63;3.63;;;;;;;8.51;81.70;102779.31;5185157;28;20017;-80
2021/04/25 09:08:03;;;;;;;12.38;3.97;;;;;;;8.51;76.98;102773.97;5184223;28;20099;-79
2021/04/25 09:10:37;;;;;;;18.80;4.32;;;;;;;8.41;74.31;102777.38;5176787;28;20022;-81
2021/04/25 09:13:14;;;;;;;10.38;4.50;;;;;;;8.74;77.39;102775.06;5168752;28;20475;-81
2021/04/25 09:15:46;;;;;;;11.10;3.58;;;;;;;9.02;69.92;102768.59;5165528;28;20030;-79
2021/04/25 09:18:16;;;;;;;10.18;3.80;;;;;;;9.16;80.27;102772.13;5182869;28;20040;-80
2021/04/25 09:20:50;;;;;;;11.25;3.65;;;;;;;9.60;78.41;102771.56;5184253;28;20041;-79
2021/04/25 09:23:20;;;;;;;7.03;3.20;;;;;;;9.76;64.02;102764.09;5169590;28;20475;-79
2021/04/25 09:25:53;;;;;;;7.28;3.47;;;;;;;9.82;64.12;102766.31;5184050;28;20030;-80
2021/04/25 09:28:24;;;;;;;7.55;3.25;;;;;;;9.75;63.80;102762.38;5169354;28;20026;-79
2021/04/25 09:30:57;;;;;;;17.98;4.00;;;;;;;9.82;65.38;102766.31;5176290;28;20030;-80
2021/04/25 09:33:47;;;;;;;12.93;3.55;;;;;;;9.44;67.10;102763.81;5175829;28;20427;-79
2021/04/25 09:36:21;;;;;;;9.30;3.53;;;;;;;9.28;75.87;102756.00;5173194;28;20492;-80
2021/04/25 09:38:53;;;;;;;12.07;4.07;;;;;;;9.53;75.60;102754.22;5186541;28;20080;-80
2021/04/25 09:41:31;;;;;;;6.85;2.88;;;;;;;9.59;68.06;102764.50;5175885;28;20050;-81
2021/04/25 09:44:02;;;;;;;10.93;3.30;;;;;;;9.64;67.10;102759.66;5165561;28;20038;-80
2021/04/25 09:46:52;;;;;;;8.20;3.58;;;;;;;9.75;65.73;102761.53;5166483;28;20022;-82
2021/04/25 09:49:46;;;;;;;11.60;3.22;;;;;;;9.86;62.41;102757.06;5165297;28;20041;-81
2021/04/25 09:52:28;;;;;;;9.20;3.00;;;;;;;9.91;61.37;102751.38;5177917;28;20451;-82
2021/04/25 09:55:20;;;;;;;13.00;3.90;;;;;;;9.81;64.37;102748.50;5176558;28;20034;-80
2021/04/25 09:57:54;;;;;;;7.93;3.28;;;;;;;9.54;61.00;102750.59;5167257;28;20022;-78
2021/04/25 10:00:38;;;;;;;9.30;2.83;;;;;;;9.69;64.54;102752.13;5164716;28;20092;-80
2021/04/25 10:03:10;;;;;;;11.93;3.58;;;;;;;9.62;63.52;102739.28;5165994;28;20015;-79
2021/04/25 10:05:58;;;;;;;8.30;3.03;;;;;;;9.76;67.01;102736.44;5184717;28;20030;-81
2021/04/25 10:08:32;;;;;;;15.02;4.22;;;;;;;9.93;64.30;102752.09;5170404;28;20029;-80
2021/04/25 10:11:05;;;;;;;14.98;3.85;;;;;;;10.10;67.29;102746.31;5184070;28;20380;-80
2021/04/25 10:13:37;;;;;;;10.98;3.05;;;;;;;10.08;60.74;102742.88;5177194;28;20473;-79
2021/04/25 10:16:07;;;;;;;8.60;3.40;;;;;;;10.09;60.23;102749.97;5163639;28;20117;-79
2021/04/25 10:18:38;;;;;;;7.55;3.72;;;;;;;10.27;58.73;102741.50;5178494;28;20165;-80
2021/04/25 10:21:09;;;;;;;10.68;2.92;;;;;;;10.31;56.22;102737.63;5163285;28;20486;-81
2021/04/25 10:23:40;;;;;;;8.23;3.35;;;;;;;10.44;59.03;102737.50;5163210;28;20036;-81
2021/04/25 10:26:12;;;;;;;8.45;3.75;;;;;;;10.51;60.76;102731.56;5180445;28;20029;-80
2021/04/25 10:28:54;;;;;;;6.40;2.83;;;;;;;10.59;57.95;102729.16;5166641;28;20030;-79
2021/04/25 10:31:31;;;;;;;9.55;3.35;;;;;;;10.58;56.81;102718.50;5149550;28;20044;-80
2021/04/25 10:34:06;;;;;;;6.65;3.13;;;;;;;10.79;56.49;102724.00;5179486;28;20038;-79
2021/04/25 10:36:42;;;;;;;;;;;;;;;10.81;56.18;102716.69;5177183;28;20026;-79
2021/04/25 10:39:31;;;;;;;;;;;;;;;10.88;57.57;102716.06;5176916;28;19955;-81
2021/04/25 10:42:20;;;;;;;8.10;3.22;;;;;;;11.05;57.99;102712.06;5180197;28;19959;-82
2021/04/25 10:45:03;;;;;;;16.33;4.00;;;;;;;11.11;54.71;102711.53;5192601;28;20100;-81
2021/04/25 10:47:35;;;;;;;8.50;3.65;;;;;;;11.29;58.43;102714.56;5187537;28;20034;-82
2021/04/25 10:50:09;;;;;;;14.43;3.53;;;;;;;11.13;58.36;102692.59;5170335;28;20080;-82
2021/04/25 10:52:40;;;;;;;15.90;3.92;;;;;;;11.06;57.89;102691.41;5193283;28;20091;-81
2021/04/25 10:55:13;;;;;;;10.52;3.60;;;;;;;11.11;56.78;102694.59;5179760;28;20504;-81
2021/04/25 10:58:01;;;;;;;12.02;3.30;;;;;;;11.17;53.06;102696.75;5180224;28;20385;-80
2021/04/25 11:00:31;;;;;;;10.00;3.90;;;;;;;11.17;56.10;102688.69;5208490;28;20053;-80
2021/04/25 11:03:05;;;;;;;8.07;3.63;;;;;;;11.27;56.72;102691.50;5193911;28;20026;-80
2021/04/25 11:05:36;;;;;;;8.90;3.45;;;;;;;11.14;55.65;102692.50;5183478;28;20032;-80
2021/04/25 11:08:14;;;;;;;10.15;3.53;;;;;;;11.28;59.21;102699.41;5195817;28;20029;-80
2021/04/25 11:10:50;;;;;;;11.70;4.05;;;;;;;11.41;56.54;102699.28;5174567;28;20094;-80
2021/04/25 11:13:33;;;;;;;11.38;3.78;;;;;;;11.51;53.63;102686.78;5179812;28;20402;-81
2021/04/25 11:16:13;;;;;;;11.20;3.65;;;;;;;11.62;58.08;102688.56;5187505;28;20038;-80
2021/04/25 11:18:46;;;;;;;9.52;4.85;;;;;;;11.64;54.05;102687.44;5187644;28;20064;-80
2021/04/25 11:21:27;;;;;;;9.98;4.40;;;;;;;11.83;51.54;102689.47;5183303;28;20037;-82
2021/04/25 11:23:59;;;;;;;13.70;4.03;;;;;;;11.91;54.87;102681.63;5196197;28;20097;-81
2021/04/25 11:26:34;;;;;;;19.15;4.30;;;;;;;12.15;52.86;102681.38;5187993;28;20022;-82
2021/04/25 11:29:11;;;;;;;11.80;4.33;;;;;;;12.37;53.74;102677.66;5173250;28;20034;-80
2021/04/25 11:31:43;;;;;;;8.32;3.75;;;;;;;12.43;52.88;102678.97;5194293;28;20280;-81
2021/04/25 11:34:23;;;;;;;8.75;4.20;;;;;;;12.35;51.52;102679.66;5178610;28;20518;-82
2021/04/25 11:36:54;;;;;;;10.13;4.35;;;;;;;12.28;51.72;102685.69;5183540;28;20034;-82
2021/04/25 11:39:27;;;;;;;12.00;3.88;;;;;;;12.27;50.65;102671.38;5191685;28;20026;-83
2021/04/25 11:41:59;;;;;;;6.60;3.58;;;;;;;12.33;50.31;102678.06;5179381;28;20022;-83
2021/04/25 11:44:32;;;;;;;11.27;4.10;;;;;;;12.47;50.81;102668.78;5189276;28;20040;-83